الصفحة الرئيسية
METAR-TAF:

METAR-TAF

مطار :

سالونيك, اليونان

دائرة عرض: 40-31N, خط طول: 022-58E, ارتفاع: 8 متر

مراقبة الطقس الحالي

تاريخ ووقت الإصدار 18 دقيقة قبل الساعة 13:50UTC
ريح 6 عقدة من الغرب
درجة الحرارة 23°درجة مئوية
الرطوبة 27%
ضغط 1015 hPa
الرؤية 10 كم أو أكثر
الغيوم لا تقل 1500 م ولا وجود لمزنة ركامية السحاب الأسود

METAR: LGTS 101350Z 26006KT CAVOK 23/03 Q1015 NOSIG

زمن: 17:08 (14:08 UTC)

توقعات

تاريخ ووقت الإصدار 3ساعات و 8 دقيقة قبل الساعة 11:00UTC
التوقعات صالحة من10 الساعة 12 UTC إلى 11 الساعة 12 UTC
ريح 3 عقدةمن اتجاهات متغيرة
الرؤية 10 كم أو أكثر
الغيوم لا تقل 1500 م ولا وجود لمزنة ركامية السحاب الأسود
أصبح
من 11 الساعة 00 UTC إلى 11 الساعة 02 UTC
ريح 10 عقدة من الشمال/الشمال الغربي
أصبح
من 11 الساعة 10 UTC إلى 11 الساعة 12 UTC
ريح 3 عقدةمن اتجاهات متغيرة

TAF: LGTS 101100Z 1012/1112 VRB03KT CAVOK BECMG 1100/1102 34010KT BECMG 1110/1112 VRB03KT

أرصاد الطقس والتوقعات من أكثر من 4000 مطار (تقارير الطقس للمطار METAR والتنبؤ بالطقس بالمطارTAF).

المحطات المتاحة هي النقط الصفراء والحمراء على الخريطة.

حرك المؤشر فوق النقطة لمعرفة اسم المحطة.

ثم انقر لمعرفة أرصاد وتوقعات الطقس.

لتغيير الخارطة: اضغط على الأزرار الخضراء مع رمز الصليب الأسود للتكبير. على الزر الأخضر مع شرطة للتصغير، أو على الأسهم الخضراء للخرائط المجاورة.


METAR-TAF: